Time;durP1;ratioP1;P1;durP2;ratioP2;P2;SDS_P1;SDS_P2;PMS_P1;PMS_P2;Temp;Humidity;BMP_temperature;BMP_pressure;BME280_temperature;BME280_humidity;BME280_pressure;Samples;Min_cycle;Max_cycle;Signal;HPM_P1;HPM_P2
2022/03/15 00:01:29;;;;;;;22.60;13.57;;;11.80;64.60;;;;;;5036246;28;20190;-91
2022/03/15 00:03:55;;;;;;;29.75;15.80;;;11.90;64.50;;;;;;5032334;28;20166;-91
2022/03/15 00:06:20;;;;;;;33.00;14.70;;;11.90;64.50;;;;;;5031371;28;20228;-91
2022/03/15 00:08:48;;;;;;;21.63;12.57;;;12.00;64.40;;;;;;5031954;28;20420;-92
2022/03/15 00:11:14;;;;;;;18.35;11.65;;;12.00;64.20;;;;;;5032378;28;20174;-92
2022/03/15 00:13:40;;;;;;;25.70;15.73;;;11.80;64.30;;;;;;5031286;28;20182;-91
2022/03/15 00:16:10;;;;;;;36.73;15.47;;;11.80;64.30;;;;;;5031894;28;20221;-92
2022/03/15 00:18:37;;;;;;;23.58;12.32;;;11.70;64.20;;;;;;5032846;28;20432;-92
2022/03/15 00:21:05;;;;;;;23.67;11.60;;;11.80;64.10;;;;;;5032820;28;20174;-91
2022/03/15 00:23:31;;;;;;;19.83;12.70;;;11.70;64.00;;;;;;5031022;28;20202;-91
2022/03/15 00:26:00;;;;;;;25.80;12.25;;;11.60;64.00;;;;;;5033300;28;20177;-91
2022/03/15 00:28:26;;;;;;;17.45;12.75;;;11.60;64.10;;;;;;5046262;28;20213;-91
2022/03/15 00:30:53;;;;;;;21.17;13.05;;;11.60;64.10;;;;;;5033224;28;20197;-91
2022/03/15 00:33:19;;;;;;;23.73;11.52;;;11.60;63.90;;;;;;5031100;28;20189;-91
2022/03/15 00:35:46;;;;;;;20.92;11.88;;;11.60;64.50;;;;;;5031368;28;20181;-91
2022/03/15 00:38:11;;;;;;;14.18;10.93;;;11.70;63.50;;;;;;5033332;28;20225;-92
2022/03/15 00:40:38;;;;;;;26.70;13.80;;;11.70;63.40;;;;;;5042006;28;20193;-91
2022/03/15 00:43:04;;;;;;;20.70;11.80;;;11.60;63.30;;;;;;5039549;28;20223;-91
2022/03/15 00:45:30;;;;;;;24.48;11.48;;;11.70;63.40;;;;;;5031403;28;20178;-91
2022/03/15 00:47:58;;;;;;;20.83;11.20;;;11.60;63.30;;;;;;5031008;28;20205;-91
2022/03/15 00:50:25;;;;;;;29.17;13.10;;;11.60;63.30;;;;;;5032484;28;20169;-91
2022/03/15 00:52:53;;;;;;;22.02;11.57;;;11.70;63.30;;;;;;5031643;28;20182;-91
2022/03/15 00:55:19;;;;;;;23.52;12.32;;;11.80;63.00;;;;;;5030946;28;20181;-91
2022/03/15 00:57:45;;;;;;;26.90;12.52;;;11.80;62.80;;;;;;5031049;28;20206;-91
2022/03/15 01:00:12;;;;;;;23.98;11.38;;;11.70;62.70;;;;;;5030861;28;20609;-91
2022/03/15 01:02:39;;;;;;;25.02;11.45;;;11.70;62.80;;;;;;5030083;28;20218;-91
2022/03/15 01:05:06;;;;;;;17.42;11.77;;;11.60;63.00;;;;;;5030526;28;20173;-91
2022/03/15 01:07:32;;;;;;;17.90;12.02;;;11.60;63.00;;;;;;5031316;28;20630;-91
2022/03/15 01:09:57;;;;;;;22.37;12.37;;;11.60;63.10;;;;;;5030869;28;20205;-91
2022/03/15 01:12:23;;;;;;;22.33;14.00;;;11.40;63.20;;;;;;5033017;28;20181;-91
2022/03/15 01:14:49;;;;;;;28.73;13.37;;;11.30;63.50;;;;;;5033379;28;20184;-91
2022/03/15 01:17:15;;;;;;;31.37;13.93;;;11.10;63.80;;;;;;5035721;28;20436;-92
2022/03/15 01:19:41;;;;;;;26.73;12.90;;;11.10;64.20;;;;;;5018639;28;20215;-91
2022/03/15 01:22:06;;;;;;;16.35;11.18;;;11.30;64.20;;;;;;5035765;28;20296;-91
2022/03/15 01:24:59;;;;;;;18.37;10.00;;;11.30;63.80;;;;;;5037953;28;20604;-91
2022/03/15 01:27:25;;;;;;;18.33;11.60;;;11.30;63.70;;;;;;5032945;28;20697;-92
2022/03/15 01:29:51;;;;;;;17.90;11.10;;;11.40;63.70;;;;;;5035148;28;20177;-91
2022/03/15 01:32:17;;;;;;;24.60;13.53;;;11.40;63.70;;;;;;5033975;28;20173;-91
2022/03/15 01:34:43;;;;;;;16.37;11.13;;;11.30;63.80;;;;;;5033487;28;20244;-93
2022/03/15 01:37:09;;;;;;;20.17;13.02;;;11.30;63.90;;;;;;5034081;28;20213;-92
2022/03/15 01:39:36;;;;;;;22.00;12.20;;;11.30;63.90;;;;;;5033310;28;20189;-92
2022/03/15 01:42:03;;;;;;;22.35;11.98;;;11.30;63.90;;;;;;5035708;28;20255;-92
2022/03/15 01:44:33;;;;;;;18.83;11.85;;;11.10;63.90;;;;;;5034212;28;20240;-92
2022/03/15 01:46:59;;;;;;;27.92;14.95;;;11.00;64.20;;;;;;5034540;28;20194;-92
2022/03/15 01:49:25;;;;;;;23.90;12.85;;;11.20;64.10;;;;;;5034360;28;20617;-91
2022/03/15 01:51:51;;;;;;;22.08;13.52;;;11.10;63.90;;;;;;5033726;28;20178;-91
2022/03/15 01:54:22;;;;;;;27.10;13.57;;;11.10;64.10;;;;;;5034033;28;20557;-91
2022/03/15 01:56:48;;;;;;;20.42;13.63;;;11.00;64.20;;;;;;5033938;28;20866;-91
2022/03/15 01:59:16;;;;;;;16.48;12.45;;;11.00;64.40;;;;;;5033905;28;20555;-91
2022/03/15 02:01:42;;;;;;;18.25;13.40;;;11.00;64.30;;;;;;5034221;28;20204;-92
2022/03/15 02:04:09;;;;;;;22.20;13.27;;;11.10;64.50;;;;;;5033264;28;20178;-91
2022/03/15 02:06:37;;;;;;;21.48;13.18;;;11.10;64.40;;;;;;5034704;28;20685;-92
2022/03/15 02:09:10;;;;;;;19.40;13.77;;;11.20;64.10;;;;;;5019874;28;20177;-91
2022/03/15 02:11:36;;;;;;;22.20;13.80;;;11.10;64.10;;;;;;5033503;28;20182;-91
2022/03/15 02:14:04;;;;;;;20.48;12.60;;;11.10;64.20;;;;;;5035156;28;20182;-91
2022/03/15 02:16:32;;;;;;;25.30;14.52;;;11.20;63.90;;;;;;5033720;28;20492;-91
2022/03/15 02:18:59;;;;;;;20.00;13.30;;;11.20;63.70;;;;;;5035108;28;20185;-91
2022/03/15 02:21:26;;;;;;;21.02;12.10;;;11.10;63.70;;;;;;5037655;28;20189;-91
2022/03/15 02:23:52;;;;;;;23.73;14.07;;;11.10;63.70;;;;;;5042820;28;20182;-91
2022/03/15 02:26:18;;;;;;;22.23;13.68;;;11.00;63.70;;;;;;5033550;28;20170;-91
2022/03/15 02:28:44;;;;;;;22.40;12.43;;;11.10;63.70;;;;;;5033560;28;20231;-91
2022/03/15 02:31:10;;;;;;;21.48;13.02;;;11.00;63.60;;;;;;5033158;28;20413;-92
2022/03/15 02:33:36;;;;;;;23.38;13.88;;;11.10;63.90;;;;;;5033321;28;20273;-92
2022/03/15 02:36:03;;;;;;;20.00;12.80;;;11.10;63.40;;;;;;5046719;28;20204;-91
2022/03/15 02:38:29;;;;;;;23.85;13.75;;;11.00;63.40;;;;;;5041679;28;20448;-91
2022/03/15 02:40:54;;;;;;;22.50;13.13;;;11.00;63.40;;;;;;5033116;28;20189;-92
2022/03/15 02:43:21;;;;;;;22.40;12.87;;;11.00;63.40;;;;;;5033269;28;20581;-92
2022/03/15 02:45:47;;;;;;;18.88;11.93;;;10.90;63.50;;;;;;5033823;28;20916;-91
2022/03/15 02:48:13;;;;;;;23.13;12.20;;;11.00;63.40;;;;;;5032580;28;20213;-91
2022/03/15 02:50:39;;;;;;;25.38;13.95;;;11.00;63.30;;;;;;5033693;28;20520;-91
2022/03/15 02:53:05;;;;;;;28.33;13.18;;;10.80;63.40;;;;;;5031865;28;20178;-90
2022/03/15 02:55:33;;;;;;;20.40;12.90;;;10.90;63.50;;;;;;5034046;28;20752;-91
2022/03/15 02:57:59;;;;;;;18.17;12.63;;;10.90;63.40;;;;;;5016798;28;20437;-88
2022/03/15 03:00:30;;;;;;;18.88;11.38;;;10.70;63.60;;;;;;5032599;28;20753;-90
2022/03/15 03:02:56;;;;;;;23.63;14.05;;;10.80;63.80;;;;;;5032263;28;20201;-90
2022/03/15 03:05:23;;;;;;;19.05;12.38;;;10.80;63.70;;;;;;5032240;28;20534;-89
2022/03/15 03:07:49;;;;;;;15.20;12.02;;;10.90;63.70;;;;;;5033404;28;20198;-91
2022/03/15 03:10:16;;;;;;;18.70;12.60;;;10.70;63.80;;;;;;5034655;28;20226;-90
2022/03/15 03:12:44;;;;;;;24.75;13.25;;;10.70;64.00;;;;;;5034040;28;20237;-91
2022/03/15 03:15:12;;;;;;;18.15;11.45;;;10.80;63.90;;;;;;5032264;28;20181;-90
2022/03/15 03:17:40;;;;;;;17.90;11.45;;;10.70;63.90;;;;;;5032355;28;20235;-91
2022/03/15 03:20:13;;;;;;;21.38;11.65;;;10.50;64.10;;;;;;5032694;28;20261;-91
2022/03/15 03:22:41;;;;;;;17.67;11.82;;;10.50;64.40;;;;;;5031640;28;20276;-91
2022/03/15 03:25:10;;;;;;;21.38;12.10;;;10.50;64.50;;;;;;5032433;28;20178;-92
2022/03/15 03:27:35;;;;;;;24.25;12.43;;;10.70;64.10;;;;;;5032303;28;20252;-92
2022/03/15 03:30:02;;;;;;;18.40;10.87;;;10.50;64.00;;;;;;5033346;28;20181;-91
2022/03/15 03:32:28;;;;;;;19.20;11.40;;;10.60;63.80;;;;;;5034654;28;20201;-91
2022/03/15 03:34:55;;;;;;;30.92;12.00;;;10.60;63.80;;;;;;5034633;28;20239;-91
2022/03/15 03:37:22;;;;;;;19.63;12.57;;;10.70;63.70;;;;;;5032192;28;20198;-92
2022/03/15 03:39:48;;;;;;;27.92;12.23;;;10.80;63.30;;;;;;5032258;28;20657;-91
2022/03/15 03:42:14;;;;;;;24.02;11.68;;;10.80;63.10;;;;;;5032692;28;20664;-92
2022/03/15 03:44:42;;;;;;;17.35;10.65;;;10.80;62.90;;;;;;5032006;28;20178;-91
2022/03/15 03:47:08;;;;;;;15.55;11.50;;;10.70;62.90;;;;;;5032624;28;20226;-92
2022/03/15 03:49:34;;;;;;;19.60;11.63;;;10.80;62.90;;;;;;5031761;28;20178;-91
2022/03/15 03:52:00;;;;;;;20.33;11.53;;;10.60;62.80;;;;;;5032381;28;20224;-91
2022/03/15 03:54:26;;;;;;;17.00;11.20;;;10.60;63.00;;;;;;5031924;28;20424;-91
2022/03/15 03:56:52;;;;;;;26.17;11.70;;;10.40;63.10;;;;;;5032934;28;20479;-91
2022/03/15 03:59:18;;;;;;;15.63;11.10;;;10.50;63.50;;;;;;5033500;28;20261;-91
2022/03/15 04:01:45;;;;;;;19.63;11.73;;;10.60;63.20;;;;;;5034499;28;20209;-91
2022/03/15 04:04:11;;;;;;;20.17;11.32;;;10.70;63.10;;;;;;5045250;28;20178;-91
2022/03/15 04:06:39;;;;;;;20.05;12.60;;;10.70;63.20;;;;;;5046505;28;20190;-91
2022/03/15 04:09:05;;;;;;;17.55;11.75;;;10.60;63.10;;;;;;5036777;28;20273;-91
2022/03/15 04:11:31;;;;;;;20.38;10.43;;;10.70;63.10;;;;;;5031852;28;20177;-92
2022/03/15 04:14:03;;;;;;;25.17;11.85;;;10.70;63.90;;;;;;5031824;28;20190;-91
2022/03/15 04:16:30;;;;;;;28.40;13.35;;;10.60;63.40;;;;;;5031883;28;20220;-91
2022/03/15 04:18:56;;;;;;;18.85;11.02;;;10.70;63.30;;;;;;5048816;28;20217;-91
2022/03/15 04:21:25;;;;;;;18.90;11.30;;;10.60;63.20;;;;;;5033705;28;20244;-91
2022/03/15 04:23:53;;;;;;;18.27;11.02;;;10.60;63.10;;;;;;5030886;28;20181;-91
2022/03/15 04:26:18;;;;;;;21.52;12.55;;;10.50;63.20;;;;;;5030888;28;20609;-91
2022/03/15 04:28:44;;;;;;;19.10;11.47;;;10.40;63.30;;;;;;5033248;28;20206;-91
2022/03/15 04:31:10;;;;;;;15.23;10.90;;;10.40;63.70;;;;;;5040978;28;20181;-91
2022/03/15 04:33:35;;;;;;;19.90;11.00;;;10.40;63.80;;;;;;5041861;28;20299;-91
2022/03/15 04:36:01;;;;;;;18.23;11.43;;;10.30;64.00;;;;;;5030835;28;21035;-91
2022/03/15 04:38:27;;;;;;;19.83;10.63;;;10.20;64.10;;;;;;5030837;28;20202;-91
2022/03/15 04:40:53;;;;;;;33.87;11.77;;;10.20;64.20;;;;;;5032687;28;20216;-91
2022/03/15 04:43:19;;;;;;;16.43;11.43;;;10.20;64.30;;;;;;5030425;28;20843;-91
2022/03/15 04:45:44;;;;;;;27.73;11.80;;;10.20;64.30;;;;;;5034445;28;20488;-91
2022/03/15 04:48:10;;;;;;;20.73;12.77;;;10.20;64.50;;;;;;5032481;28;20693;-91
2022/03/15 04:50:36;;;;;;;30.48;13.25;;;10.10;64.60;;;;;;5030901;28;20182;-91
2022/03/15 04:53:02;;;;;;;19.93;11.07;;;9.90;64.90;;;;;;5030986;28;20178;-91
2022/03/15 04:55:28;;;;;;;16.50;10.10;;;9.90;65.30;;;;;;5031793;28;20240;-91
2022/03/15 04:57:56;;;;;;;16.83;11.07;;;9.90;65.40;;;;;;5031522;28;20709;-91
2022/03/15 05:00:22;;;;;;;18.77;13.25;;;9.80;65.60;;;;;;5030994;28;20272;-91
2022/03/15 05:02:47;;;;;;;17.37;11.20;;;9.80;65.80;;;;;;5030398;28;20642;-91
2022/03/15 05:05:13;;;;;;;18.17;10.97;;;9.80;66.00;;;;;;5032810;28;20174;-91
2022/03/15 05:07:39;;;;;;;18.13;11.10;;;9.80;66.00;;;;;;5032161;28;20657;-91
2022/03/15 05:12:50;;;;;;;14.95;10.35;;;9.60;66.20;;;;;;5032118;28;20431;-91
2022/03/15 05:15:16;;;;;;;19.73;10.75;;;9.50;66.50;;;;;;5030518;28;20186;-91
2022/03/15 05:17:42;;;;;;;22.42;11.05;;;9.40;66.70;;;;;;5032988;28;20288;-91
2022/03/15 05:20:17;;;;;;;19.13;10.93;;;9.50;67.20;;;;;;5032480;28;20182;-91
2022/03/15 05:22:43;;;;;;;14.95;10.23;;;9.60;67.10;;;;;;5033920;28;20188;-91
2022/03/15 05:25:11;;;;;;;22.15;11.02;;;9.70;66.80;;;;;;5032585;28;20232;-91
2022/03/15 05:27:37;;;;;;;18.27;9.57;;;9.70;66.70;;;;;;5033598;28;20304;-91
2022/03/15 05:30:04;;;;;;;15.75;9.80;;;9.80;66.60;;;;;;5034054;28;20185;-90
2022/03/15 05:32:30;;;;;;;20.38;9.82;;;9.70;66.50;;;;;;5032821;28;20192;-91
2022/03/15 05:34:56;;;;;;;19.52;10.20;;;9.80;66.30;;;;;;5039440;28;20192;-90
2022/03/15 05:37:22;;;;;;;22.57;9.50;;;9.90;66.10;;;;;;5037126;28;20225;-91
2022/03/15 05:39:48;;;;;;;16.43;10.83;;;9.90;65.90;;;;;;5037906;28;20412;-90
2022/03/15 05:42:14;;;;;;;14.13;8.35;;;9.90;65.90;;;;;;5044029;28;20444;-90
2022/03/15 05:44:40;;;;;;;24.85;10.57;;;9.90;66.00;;;;;;5061018;28;20239;-90
2022/03/15 05:47:07;;;;;;;15.10;10.07;;;9.90;65.90;;;;;;5051908;28;20284;-92
2022/03/15 05:49:35;;;;;;;14.63;9.00;;;9.80;65.90;;;;;;5048708;28;20268;-92
2022/03/15 05:52:03;;;;;;;19.65;10.15;;;9.80;66.10;;;;;;5030636;28;20189;-92
2022/03/15 05:54:29;;;;;;;23.73;8.90;;;9.80;66.20;;;;;;5014325;28;20255;-91
2022/03/15 05:56:55;;;;;;;20.92;10.88;;;9.80;66.20;;;;;;5030937;28;20194;-92
2022/03/15 05:59:21;;;;;;;16.77;9.53;;;9.80;66.10;;;;;;5035321;28;20240;-91
2022/03/15 06:01:47;;;;;;;19.80;8.27;;;9.90;66.30;;;;;;5038134;28;20296;-89
2022/03/15 06:04:12;;;;;;;14.20;7.87;;;9.90;66.10;;;;;;5036230;28;20223;-90
2022/03/15 06:06:38;;;;;;;19.50;9.53;;;9.80;66.00;;;;;;5034600;28;20437;-90
2022/03/15 06:09:04;;;;;;;16.73;8.63;;;9.70;66.30;;;;;;5033798;28;20182;-90
2022/03/15 06:11:32;;;;;;;15.07;8.52;;;9.60;66.60;;;;;;5042533;28;20178;-89
2022/03/15 06:14:01;;;;;;;13.68;8.70;;;9.50;66.70;;;;;;5047083;28;20213;-90
2022/03/15 06:16:27;;;;;;;20.58;8.43;;;9.60;67.20;;;;;;5038532;28;20182;-90
2022/03/15 06:18:53;;;;;;;21.35;9.38;;;9.70;67.20;;;;;;5034767;28;20185;-90
2022/03/15 06:21:19;;;;;;;12.80;7.87;;;9.80;66.90;;;;;;5033633;28;20268;-90
2022/03/15 06:23:45;;;;;;;10.20;7.43;;;9.80;66.60;;;;;;5033207;28;20514;-90
2022/03/15 06:26:10;;;;;;;14.43;8.20;;;9.80;66.50;;;;;;5039385;28;20480;-91
2022/03/15 06:28:37;;;;;;;16.50;8.07;;;9.80;66.50;;;;;;5048883;28;20456;-90
2022/03/15 06:31:04;;;;;;;12.90;7.97;;;9.90;66.20;;;;;;5035200;28;20178;-91
2022/03/15 06:33:30;;;;;;;10.75;8.50;;;9.80;66.00;;;;;;5033487;28;20178;-90
2022/03/15 06:35:56;;;;;;;15.50;8.40;;;9.60;66.30;;;;;;5033412;28;20209;-90
2022/03/15 06:38:24;;;;;;;15.07;9.00;;;9.60;66.80;;;;;;5034046;28;20236;-91
2022/03/15 06:40:52;;;;;;;13.23;8.70;;;9.70;67.00;;;;;;5034185;28;20192;-91
2022/03/15 06:43:19;;;;;;;22.13;7.90;;;9.70;67.00;;;;;;5034291;28;20770;-91
2022/03/15 06:45:47;;;;;;;16.20;7.55;;;9.70;66.90;;;;;;5035284;28;20178;-90
2022/03/15 06:48:12;;;;;;;14.27;7.80;;;9.40;66.80;;;;;;5033501;28;20206;-90
2022/03/15 06:50:40;;;;;;;14.40;7.67;;;9.60;67.30;;;;;;5035855;28;20758;-90
2022/03/15 06:53:06;;;;;;;11.30;8.10;;;9.70;67.30;;;;;;5034981;28;20429;-92
2022/03/15 06:55:44;;;;;;;19.90;7.90;;;9.70;67.20;;;;;;5035586;28;20243;-92
2022/03/15 06:58:10;;;;;;;23.05;8.73;;;9.80;66.90;;;;;;5034482;28;20201;-92
2022/03/15 07:00:36;;;;;;;19.07;8.87;;;9.90;66.70;;;;;;5036572;28;20186;-92
2022/03/15 07:03:02;;;;;;;12.60;7.03;;;10.00;66.40;;;;;;5034589;28;20220;-91
2022/03/15 07:05:28;;;;;;;17.42;7.25;;;10.10;66.30;;;;;;5035406;28;20190;-91
2022/03/15 07:07:54;;;;;;;14.40;7.80;;;10.10;66.00;;;;;;5019996;28;20665;-91
2022/03/15 07:10:20;;;;;;;14.20;7.17;;;9.90;66.00;;;;;;5032863;28;20181;-90
2022/03/15 07:12:47;;;;;;;12.20;7.35;;;9.90;66.20;;;;;;5032139;28;20193;-92
2022/03/15 07:15:14;;;;;;;18.60;8.00;;;9.90;66.30;;;;;;5036388;28;20253;-93
2022/03/15 07:17:54;;;;;;;8.93;6.03;;;9.70;66.50;;;;;;5034852;28;20202;-93
2022/03/15 07:20:21;;;;;;;14.52;7.57;;;9.80;66.70;;;;;;5055166;28;20181;-92
2022/03/15 07:22:47;;;;;;;15.80;6.97;;;9.70;66.50;;;;;;5053398;28;20228;-92
2022/03/15 07:25:13;;;;;;;12.68;7.10;;;9.80;66.60;;;;;;5053144;28;20315;-91
2022/03/15 07:27:39;;;;;;;24.92;7.85;;;9.90;66.70;;;;;;5038585;28;20240;-94
2022/03/15 07:30:06;;;;;;;9.83;6.07;;;9.90;66.60;;;;;;5036736;28;20204;-91
2022/03/15 07:32:32;;;;;;;12.40;6.82;;;9.80;66.50;;;;;;5037076;28;20300;-92
2022/03/15 07:34:57;;;;;;;16.20;7.17;;;9.80;66.60;;;;;;5040929;28;20619;-93
2022/03/15 07:37:23;;;;;;;14.60;8.00;;;10.00;66.20;;;;;;5039297;28;20476;-92
2022/03/15 07:39:49;;;;;;;16.90;8.00;;;10.10;66.20;;;;;;5049709;28;20417;-92
2022/03/15 07:42:15;;;;;;;19.37;8.50;;;10.20;66.00;;;;;;5053331;28;20212;-93
2022/03/15 07:44:42;;;;;;;11.90;7.67;;;10.10;66.00;;;;;;5053296;28;20186;-93
2022/03/15 07:47:14;;;;;;;18.10;6.88;;;10.00;66.00;;;;;;5053730;28;20461;-92
2022/03/15 07:49:40;;;;;;;10.40;6.57;;;9.90;66.20;;;;;;5054184;28;20178;-93
2022/03/15 07:52:06;;;;;;;11.10;6.85;;;10.10;66.60;;;;;;5052028;28;20249;-93
2022/03/15 07:54:32;;;;;;;9.13;6.45;;;10.40;65.60;;;;;;5040538;28;20688;-93
2022/03/15 07:56:58;;;;;;;10.47;6.60;;;10.50;64.80;;;;;;5038021;28;20257;-92
2022/03/15 07:59:25;;;;;;;16.20;7.75;;;10.60;64.50;;;;;;5052399;28;20906;-93
2022/03/15 08:01:51;;;;;;;14.50;5.65;;;10.60;64.40;;;;;;5070786;28;20204;-94
2022/03/15 08:04:17;;;;;;;11.97;6.07;;;10.70;64.40;;;;;;5063615;28;20177;-93
2022/03/15 08:06:43;;;;;;;15.13;6.05;;;10.70;64.10;;;;;;5067994;28;20355;-94
2022/03/15 08:09:09;;;;;;;11.40;5.37;;;10.50;64.20;;;;;;5069764;28;20228;-94
2022/03/15 08:11:35;;;;;;;12.40;5.73;;;10.50;64.20;;;;;;5065639;28;20461;-93
2022/03/15 08:14:01;;;;;;;12.27;5.80;;;10.40;64.40;;;;;;5059888;28;20477;-93
2022/03/15 08:16:27;;;;;;;12.85;6.03;;;10.30;64.70;;;;;;5066828;28;20420;-95
2022/03/15 08:18:54;;;;;;;11.77;7.65;;;10.10;65.20;;;;;;5064381;28;20653;-92
2022/03/15 08:24:42;;;;;;;11.65;5.93;;;10.10;65.10;;;;;;5057324;28;20211;-91
2022/03/15 08:27:08;;;;;;;13.13;5.77;;;10.30;65.40;;;;;;5052702;28;20212;-91
2022/03/15 08:29:34;;;;;;;9.30;5.95;;;10.40;65.10;;;;;;5042759;28;20189;-93
2022/03/15 08:32:00;;;;;;;12.60;6.33;;;10.30;65.10;;;;;;5033088;28;20564;-92
2022/03/15 08:34:26;;;;;;;11.00;5.15;;;10.40;65.00;;;;;;5033515;28;20416;-92
2022/03/15 08:36:53;;;;;;;9.13;5.03;;;10.50;65.60;;;;;;5032543;28;20204;-91
2022/03/15 08:39:23;;;;;;;14.10;7.10;;;10.50;64.80;;;;;;5032673;28;20268;-92
2022/03/15 08:41:51;;;;;;;9.50;5.85;;;10.60;64.80;;;;;;5050711;28;20661;-94
2022/03/15 08:44:18;;;;;;;12.52;5.72;;;10.70;64.40;;;;;;5048094;28;20245;-93
2022/03/15 08:46:47;;;;;;;8.15;5.65;;;10.70;64.10;;;;;;5054488;28;20186;-93
2022/03/15 09:41:26;;;;;;;10.95;5.40;;;11.00;64.50;;;;;;4979828;28;20270;-90
2022/03/15 09:50:51;;;;;;;10.20;5.32;;;11.50;63.20;;;;;;4980989;28;20238;-90
2022/03/15 09:53:18;;;;;;;12.00;5.50;;;11.50;62.90;;;;;;4961702;28;20180;-90
2022/03/15 09:56:38;;;;;;;8.13;5.20;;;11.20;63.00;;;;;;4962232;28;20679;-91
2022/03/15 09:59:19;;;;;;;15.15;5.13;;;11.20;63.30;;;;;;4978629;28;20194;-93
2022/03/15 10:01:50;;;;;;;19.05;5.15;;;11.10;63.40;;;;;;4996907;28;20180;-92
2022/03/15 10:04:21;;;;;;;14.30;6.35;;;11.00;63.70;;;;;;4991268;28;20270;-91
2022/03/15 10:06:48;;;;;;;15.77;5.40;;;10.90;63.90;;;;;;4978841;28;20267;-91
2022/03/15 10:09:15;;;;;;;10.23;5.45;;;11.10;64.40;;;;;;4985159;28;20203;-92
2022/03/15 10:11:42;;;;;;;13.18;6.47;;;11.50;64.10;;;;;;4988969;28;20275;-92
2022/03/15 10:14:09;;;;;;;18.15;6.97;;;11.90;63.30;;;;;;4996026;28;20191;-92
2022/03/15 10:16:40;;;;;;;19.60;5.80;;;12.00;62.50;;;;;;4977411;28;20188;-92
2022/03/15 10:19:09;;;;;;;7.78;4.72;;;12.10;61.60;;;;;;4958530;28;20259;-93
2022/03/15 10:21:51;;;;;;;7.47;5.10;;;11.60;61.80;;;;;;4985269;28;20187;-92
2022/03/15 10:24:23;;;;;;;13.68;5.03;;;11.80;62.30;;;;;;4976757;28;20714;-91
2022/03/15 10:26:52;;;;;;;10.80;5.75;;;11.80;62.00;;;;;;4977017;28;20207;-92
2022/03/15 10:29:21;;;;;;;6.68;5.30;;;12.00;61.90;;;;;;4978815;28;20176;-92
2022/03/15 10:31:49;;;;;;;11.15;5.70;;;12.00;61.70;;;;;;4980294;28;20187;-92
2022/03/15 10:34:16;;;;;;;8.27;4.50;;;12.30;61.60;;;;;;4978155;28;20184;-92
2022/03/15 10:36:54;;;;;;;10.32;5.57;;;12.50;60.90;;;;;;4980249;28;20200;-91
2022/03/15 10:39:21;;;;;;;9.65;5.68;;;12.50;60.20;;;;;;4980737;28;20188;-92
2022/03/15 10:41:54;;;;;;;10.13;5.22;;;12.60;59.80;;;;;;4985442;28;20540;-92
2022/03/15 10:44:35;;;;;;;12.07;4.90;;;12.50;60.10;;;;;;4986964;28;20319;-91
2022/03/15 10:47:12;;;;;;;12.23;5.20;;;12.40;60.10;;;;;;4961826;28;20223;-92
2022/03/15 10:49:59;;;;;;;9.68;5.22;;;12.40;60.20;;;;;;4980158;28;20218;-92
2022/03/15 10:52:44;;;;;;;13.05;5.38;;;12.60;60.30;;;;;;4962841;28;20187;-92
2022/03/15 10:55:25;;;;;;;8.80;5.63;;;12.70;60.10;;;;;;4981307;28;20180;-92
2022/03/15 10:57:57;;;;;;;15.20;6.68;;;13.00;60.40;;;;;;4978687;28;20196;-92
2022/03/15 11:00:29;;;;;;;9.45;5.38;;;13.10;59.30;;;;;;4977479;28;20179;-92
2022/03/15 11:02:57;;;;;;;8.68;5.80;;;13.20;59.10;;;;;;4977200;28;20204;-92
2022/03/15 11:05:34;;;;;;;13.35;6.35;;;13.30;58.80;;;;;;4978248;28;20179;-92
2022/03/15 11:08:09;;;;;;;9.32;6.05;;;13.40;59.00;;;;;;4978202;28;20196;-92
2022/03/15 11:10:37;;;;;;;11.52;5.65;;;13.40;58.90;;;;;;4978162;28;20168;-91
2022/03/15 11:13:11;;;;;;;7.00;5.70;;;13.40;58.80;;;;;;4977044;28;20530;-92
2022/03/15 11:15:53;;;;;;;9.05;4.88;;;13.40;59.10;;;;;;4977919;28;20321;-92
2022/03/15 11:18:25;;;;;;;10.40;6.97;;;13.40;59.30;;;;;;4979903;28;20230;-91
2022/03/15 11:20:53;;;;;;;17.15;7.63;;;13.20;59.30;;;;;;4981515;28;20239;-92
2022/03/15 11:23:23;;;;;;;11.43;6.97;;;13.00;60.20;;;;;;4981572;28;20225;-92
2022/03/15 11:26:06;;;;;;;16.48;8.05;;;12.90;60.50;;;;;;4965115;28;20207;-92
2022/03/15 11:28:36;;;;;;;13.45;6.88;;;12.80;61.00;;;;;;4981443;28;20220;-92
2022/03/15 11:31:07;;;;;;;10.98;7.15;;;12.70;61.50;;;;;;4967241;28;20225;-91
2022/03/15 11:33:40;;;;;;;20.45;10.63;;;12.80;61.50;;;;;;4981581;28;20271;-92
2022/03/15 11:36:06;;;;;;;11.13;7.50;;;12.90;61.40;;;;;;4986432;28;20199;-92
2022/03/15 11:38:35;;;;;;;23.73;6.82;;;13.00;61.20;;;;;;4982409;28;20196;-92
2022/03/15 11:41:02;;;;;;;10.70;6.35;;;13.10;61.10;;;;;;4981035;28;20211;-92
2022/03/15 11:43:50;;;;;;;8.48;6.28;;;13.10;60.60;;;;;;4962025;28;20208;-92
2022/03/15 11:46:21;;;;;;;11.25;7.60;;;12.70;61.00;;;;;;4980686;28;20580;-92
2022/03/15 11:49:12;;;;;;;13.05;7.85;;;12.70;61.80;;;;;;4975628;28;20179;-89
2022/03/15 11:51:47;;;;;;;17.42;9.82;;;13.00;61.80;;;;;;4976427;28;20249;-92
2022/03/15 11:54:28;;;;;;;8.25;6.82;;;13.20;61.40;;;;;;4981578;28;20187;-90
2022/03/15 11:56:59;;;;;;;8.13;4.78;;;13.40;60.90;;;;;;4985415;28;20199;-93
2022/03/15 11:59:25;;;;;;;9.75;6.32;;;13.50;60.60;;;;;;4981574;28;20187;-91
2022/03/15 12:01:54;;;;;;;6.03;4.18;;;13.30;60.70;;;;;;4978100;28;20183;-91
2022/03/15 12:04:31;;;;;;;8.98;5.05;;;13.30;61.30;;;;;;4972771;28;20212;-90
2022/03/15 12:07:02;;;;;;;11.85;5.85;;;13.30;61.70;;;;;;4991555;28;20203;-91
2022/03/15 12:09:30;;;;;;;6.40;3.75;;;13.40;61.70;;;;;;4987952;28;20236;-91
2022/03/15 12:12:09;;;;;;;11.40;5.70;;;13.10;61.80;;;;;;4987076;28;20214;-91
2022/03/15 12:14:52;;;;;;;9.77;4.55;;;12.90;62.10;;;;;;4975935;28;20203;-91
2022/03/15 12:17:18;;;;;;;9.70;4.22;;;12.70;63.00;;;;;;4982364;28;20204;-91
2022/03/15 12:19:48;;;;;;;11.18;3.90;;;12.70;63.10;;;;;;4978759;28;20230;-91
2022/03/15 12:22:37;;;;;;;8.73;4.28;;;12.80;63.20;;;;;;4978532;28;20204;-90
2022/03/15 12:25:14;;;;;;;7.65;5.28;;;13.10;62.80;;;;;;4979402;28;20184;-91
2022/03/15 12:27:46;;;;;;;9.07;6.28;;;13.30;62.40;;;;;;4978340;28;20211;-92
2022/03/15 12:30:26;;;;;;;9.00;5.53;;;13.40;62.10;;;;;;4977626;28;20176;-91
2022/03/15 12:32:54;;;;;;;4.97;3.80;;;13.60;61.90;;;;;;4976048;28;20199;-91
2022/03/15 12:35:25;;;;;;;6.00;4.10;;;13.80;61.10;;;;;;4976021;28;20761;-92
2022/03/15 12:38:02;;;;;;;4.90;3.90;;;13.90;60.50;;;;;;4975859;28;20225;-91
2022/03/15 12:40:31;;;;;;;4.38;3.55;;;13.90;60.10;;;;;;4975200;28;20223;-92
2022/03/15 12:43:01;;;;;;;9.48;4.20;;;13.90;60.20;;;;;;4977162;28;20204;-91
2022/03/15 12:45:32;;;;;;;4.30;3.35;;;13.90;60.60;;;;;;4977376;28;20172;-92
2022/03/15 12:48:06;;;;;;;6.80;4.13;;;14.00;60.30;;;;;;4977687;28;20200;-91
2022/03/15 12:50:33;;;;;;;13.05;5.43;;;14.10;60.10;;;;;;4977405;28;20751;-92
2022/03/15 12:53:12;;;;;;;8.38;4.53;;;13.90;59.70;;;;;;4976732;28;20747;-92
2022/03/15 12:55:42;;;;;;;6.70;3.97;;;13.70;60.40;;;;;;4977592;28;20188;-92
2022/03/15 12:58:10;;;;;;;8.57;3.92;;;13.70;60.40;;;;;;4985502;28;20215;-91
2022/03/15 13:00:37;;;;;;;4.50;3.78;;;13.50;60.60;;;;;;4975285;28;20188;-91
2022/03/15 13:03:06;;;;;;;4.15;3.75;;;13.60;60.90;;;;;;4972786;28;20262;-91
2022/03/15 13:05:31;;;;;;;4.80;4.30;;;13.40;60.80;;;;;;4968259;28;20236;-91
2022/03/15 13:08:02;;;;;;;5.00;4.33;;;13.40;61.10;;;;;;4982062;28;20571;-91
2022/03/15 13:10:48;;;;;;;4.30;3.53;;;13.30;61.30;;;;;;4992205;28;20171;-91
2022/03/15 13:13:29;;;;;;;6.63;4.80;;;13.10;62.10;;;;;;4991277;28;20247;-91
2022/03/15 13:16:12;;;;;;;5.63;3.97;;;13.20;62.00;;;;;;4980305;28;20175;-91
2022/03/15 13:18:41;;;;;;;8.27;5.18;;;13.10;62.10;;;;;;4980358;28;20643;-92
2022/03/15 13:21:09;;;;;;;6.25;4.72;;;13.20;62.20;;;;;;4982017;28;20203;-91
2022/03/15 13:23:45;;;;;;;8.57;5.45;;;13.40;62.10;;;;;;4964980;28;20212;-91
2022/03/15 13:26:12;;;;;;;7.40;4.85;;;13.40;61.90;;;;;;4999626;28;20183;-90
2022/03/15 13:28:51;;;;;;;9.05;4.45;;;13.20;62.00;;;;;;4999070;28;20215;-90
2022/03/15 13:31:20;;;;;;;7.72;4.20;;;13.30;62.10;;;;;;4979368;28;20172;-92
2022/03/15 13:33:56;;;;;;;7.40;4.75;;;13.30;62.10;;;;;;4975709;28;20735;-92
2022/03/15 13:36:24;;;;;;;7.40;4.50;;;13.50;62.20;;;;;;4962041;28;20184;-91
2022/03/15 13:39:00;;;;;;;6.22;4.28;;;13.60;61.50;;;;;;4980660;28;20194;-92
2022/03/15 13:41:53;;;;;;;6.57;4.57;;;13.70;61.10;;;;;;4978487;28;20194;-91
2022/03/15 13:44:25;;;;;;;7.00;4.72;;;13.70;60.70;;;;;;4977136;28;20199;-91
2022/03/15 13:47:16;;;;;;;9.05;5.00;;;13.70;60.50;;;;;;4978919;28;20199;-91
2022/03/15 13:49:42;;;;;;;9.25;4.72;;;13.70;61.10;;;;;;4981136;28;20246;-91